Terminal Aerodrome Forecast
Issued by NWS Wilmington, OH

Current Version | Previous Version | Text Only | Print | Product List | Glossary Off
Versions: 1 2 3 4 5 6 7 8 9 10 11 12 13 14 15 16 17 18 19 20 21

000
FTUS41 KILN 221700
TAFILN
TAF
KILN 221737Z 2218/2318 34006KT P6SM OVC018
     FM230000 02004KT P6SM OVC016
     FM231000 00000KT 5SM BR SCT016 BKN250
     FM231500 04004KT P6SM BKN250=

USA.gov is the U.S. government's official web portal to all federal, state and local government web resources and services.